Harbor King — WCY3492 — position and weather

sailwx.info

Track history (hours):
 
Tides and Currents Weather Stations Pressure Air Temp Water Temp Dewpoint Dewpoint Depression Visibility Wind Speed Wind Dir Waves Ship Positions

Harbor King

Owner: Golden Gate Scenic Steamship Corp, SAN FRANCISCO, CA. More information available from US FCC via Universal Licensing System and Coast Guard Vessel Documentation Center.

Last reported at 2018-Feb-18 01:00 UTC. Time now 2018-Feb-18 01:26 UTC.
Position N 33°43' W 118°16'.

Length 20 m; draft 2 m.

Type: Passenger vessel. MMSI: 366975770.

Date/timePositionNaut miles runAvg speedWind from/ knotsBaromVisibWave heightAir tempDewpointWater temp
2018-Feb-18 01:00N 33°43' W 118°16'1 1.9
2018-Feb-18 00:30N 33°44' W 118°17'0 0.0
2018-Feb-18 00:00N 33°44' W 118°17'2 3.5
2018-Feb-17 23:30N 33°42' W 118°16'2 3.5
2018-Feb-17 23:00N 33°44' W 118°17'0 0.0
2018-Feb-17 22:30N 33°44' W 118°17'1 2.3
2018-Feb-17 22:00N 33°43' W 118°16'1 2.3
2018-Feb-17 21:30N 33°44' W 118°17'0 0.0
2018-Feb-17 21:00N 33°44' W 118°17'2 3.6
2018-Feb-17 20:30N 33°42' W 118°16'2 3.6
2018-Feb-17 20:00N 33°44' W 118°17'0 0.0
2018-Feb-17 19:30N 33°44' W 118°17'0 0.0
2018-Feb-17 19:00N 33°44' W 118°17'0 0.0
2018-Feb-17 18:30N 33°44' W 118°17'0 0.2
2018-Feb-17 18:00N 33°44' W 118°17'4 7.1
2018-Feb-17 17:30N 33°44' W 118°12'2 4.5
2018-Feb-17 17:00N 33°46' W 118°12'  
2018-Feb-12 04:54N 33°46' W 118°12'2 5.0
2018-Feb-12 04:30N 33°44' W 118°11'4 8.6
2018-Feb-12 04:00N 33°43' W 118°16'1 2.9
2018-Feb-12 03:30N 33°45' W 118°16'1 1.8
2018-Feb-12 03:00N 33°44' W 118°17'0 0.0
2018-Feb-12 02:30N 33°44' W 118°17'1 1.5
2018-Feb-12 02:00N 33°45' W 118°17'1 1.5
2018-Feb-12 01:30N 33°44' W 118°17'0 0.0
2018-Feb-12 01:00N 33°44' W 118°17'1 1.8
2018-Feb-12 00:30N 33°43' W 118°16'1 1.8
2018-Feb-12 00:00N 33°44' W 118°17'1 1.6
2018-Feb-11 23:30N 33°44' W 118°16'1 1.6
2018-Feb-11 23:00N 33°44' W 118°17'0 0.3
2018-Feb-11 22:30N 33°44' W 118°16'0 0.2
2018-Feb-11 22:00N 33°44' W 118°17'0 0.3
2018-Feb-11 21:30N 33°44' W 118°16'1 2.3
2018-Feb-11 21:00N 33°43' W 118°16'1 2.7
2018-Feb-11 20:30N 33°44' W 118°17'0 0.8
2018-Feb-11 20:00N 33°44' W 118°17'2 3.6
2018-Feb-11 19:30N 33°43' W 118°16'1 3.0
2018-Feb-11 19:00N 33°44' W 118°17'0 0.0
2018-Feb-11 18:30N 33°44' W 118°17'0 0.0
2018-Feb-11 03:32N 33°44' W 118°17'0 0.0
2018-Feb-11 03:30N 33°44' W 118°17'1 2.0
2018-Feb-11 03:00N 33°43' W 118°16'1 2.0
2018-Feb-11 02:30N 33°44' W 118°17'0 0.0
2018-Feb-11 02:00N 33°44' W 118°17'1 2.7
2018-Feb-11 01:30N 33°43' W 118°16'1 2.7
2018-Feb-11 01:00N 33°44' W 118°17'0 0.8
2018-Feb-11 00:30N 33°44' W 118°17'2 3.2
2018-Feb-11 00:00N 33°43' W 118°16'1 2.4
2018-Feb-10 23:30N 33°44' W 118°17'0 0.0
2018-Feb-10 23:00N 33°44' W 118°17'1 2.0
2018-Feb-10 22:30N 33°43' W 118°16'1 2.0
2018-Feb-10 22:00N 33°44' W 118°17'0 0.0
2018-Feb-10 21:30N 33°44' W 118°17'1 2.0
2018-Feb-10 21:00N 33°43' W 118°16'1 2.0
2018-Feb-10 20:30N 33°44' W 118°17'0 0.6
2018-Feb-10 20:00N 33°44' W 118°17'2 3.4
2018-Feb-10 19:30N 33°43' W 118°16'1 2.9
2018-Feb-10 19:00N 33°44' W 118°17'0 0.0
2018-Feb-10 18:30N 33°44' W 118°17'0 0.6
2018-Feb-10 18:00N 33°44' W 118°17'0 0.0
2018-Feb-10 17:30N 33°44' W 118°17'4 0.1
2018-Feb-08 17:30N 33°46' W 118°12'  
Track history (hours):
 
Tides and Currents Weather Stations Pressure Air Temp Water Temp Dewpoint Dewpoint Depression Visibility Wind Speed Wind Dir Waves Ship Positions

Harbor King

Owner: Golden Gate Scenic Steamship Corp, SAN FRANCISCO, CA. More information available from US FCC via Universal Licensing System and Coast Guard Vessel Documentation Center.

Last reported at 2018-Feb-18 01:00 UTC. Time now 2018-Feb-18 01:26 UTC.
Position N 33°43' W 118°16'.

Length 20 m; draft 2 m.

Type: Passenger vessel. MMSI: 366975770.

Date/timePositionNaut miles runAvg speedWind from/ knotsBaromVisibWave heightAir tempDewpointWater temp
2018-Feb-18 01:00N 33°43' W 118°16'1 1.9
2018-Feb-18 00:30N 33°44' W 118°17'0 0.0
2018-Feb-18 00:00N 33°44' W 118°17'2 3.5
2018-Feb-17 23:30N 33°42' W 118°16'2 3.5
2018-Feb-17 23:00N 33°44' W 118°17'0 0.0
2018-Feb-17 22:30N 33°44' W 118°17'1 2.3
2018-Feb-17 22:00N 33°43' W 118°16'1 2.3
2018-Feb-17 21:30N 33°44' W 118°17'0 0.0
2018-Feb-17 21:00N 33°44' W 118°17'2 3.6
2018-Feb-17 20:30N 33°42' W 118°16'2 3.6
2018-Feb-17 20:00N 33°44' W 118°17'0 0.0
2018-Feb-17 19:30N 33°44' W 118°17'0 0.0
2018-Feb-17 19:00N 33°44' W 118°17'0 0.0
2018-Feb-17 18:30N 33°44' W 118°17'0 0.2
2018-Feb-17 18:00N 33°44' W 118°17'4 7.1
2018-Feb-17 17:30N 33°44' W 118°12'2 4.5
2018-Feb-17 17:00N 33°46' W 118°12'  
2018-Feb-12 04:54N 33°46' W 118°12'2 5.0
2018-Feb-12 04:30N 33°44' W 118°11'4 8.6
2018-Feb-12 04:00N 33°43' W 118°16'1 2.9
2018-Feb-12 03:30N 33°45' W 118°16'1 1.8
2018-Feb-12 03:00N 33°44' W 118°17'0 0.0
2018-Feb-12 02:30N 33°44' W 118°17'1 1.5
2018-Feb-12 02:00N 33°45' W 118°17'1 1.5
2018-Feb-12 01:30N 33°44' W 118°17'0 0.0
2018-Feb-12 01:00N 33°44' W 118°17'1 1.8
2018-Feb-12 00:30N 33°43' W 118°16'1 1.8
2018-Feb-12 00:00N 33°44' W 118°17'1 1.6
2018-Feb-11 23:30N 33°44' W 118°16'1 1.6
2018-Feb-11 23:00N 33°44' W 118°17'0 0.3
2018-Feb-11 22:30N 33°44' W 118°16'0 0.2
2018-Feb-11 22:00N 33°44' W 118°17'0 0.3
2018-Feb-11 21:30N 33°44' W 118°16'1 2.3
2018-Feb-11 21:00N 33°43' W 118°16'1 2.7
2018-Feb-11 20:30N 33°44' W 118°17'0 0.8
2018-Feb-11 20:00N 33°44' W 118°17'2 3.6
2018-Feb-11 19:30N 33°43' W 118°16'1 3.0
2018-Feb-11 19:00N 33°44' W 118°17'0 0.0
2018-Feb-11 18:30N 33°44' W 118°17'0 0.0
2018-Feb-11 03:32N 33°44' W 118°17'0 0.0
2018-Feb-11 03:30N 33°44' W 118°17'1 2.0
2018-Feb-11 03:00N 33°43' W 118°16'1 2.0
2018-Feb-11 02:30N 33°44' W 118°17'0 0.0
2018-Feb-11 02:00N 33°44' W 118°17'1 2.7
2018-Feb-11 01:30N 33°43' W 118°16'1 2.7
2018-Feb-11 01:00N 33°44' W 118°17'0 0.8
2018-Feb-11 00:30N 33°44' W 118°17'2 3.2
2018-Feb-11 00:00N 33°43' W 118°16'1 2.4
2018-Feb-10 23:30N 33°44' W 118°17'0 0.0
2018-Feb-10 23:00N 33°44' W 118°17'1 2.0
2018-Feb-10 22:30N 33°43' W 118°16'1 2.0
2018-Feb-10 22:00N 33°44' W 118°17'0 0.0
2018-Feb-10 21:30N 33°44' W 118°17'1 2.0
2018-Feb-10 21:00N 33°43' W 118°16'1 2.0
2018-Feb-10 20:30N 33°44' W 118°17'0 0.6
2018-Feb-10 20:00N 33°44' W 118°17'2 3.4
2018-Feb-10 19:30N 33°43' W 118°16'1 2.9
2018-Feb-10 19:00N 33°44' W 118°17'0 0.0
2018-Feb-10 18:30N 33°44' W 118°17'0 0.6
2018-Feb-10 18:00N 33°44' W 118°17'0 0.0
2018-Feb-10 17:30N 33°44' W 118°17'4 0.1
2018-Feb-08 17:30N 33°46' W 118°12'  

Dump ship's entire track history